Time;durP1;ratioP1;P1;durP2;ratioP2;P2;SDS_P1;SDS_P2;PMS_P1;PMS_P2;Temp;Humidity;BMP_temperature;BMP_pressure;BME280_temperature;BME280_humidity;BME280_pressure;Samples;Min_cycle;Max_cycle;Signal;HPM_P1;HPM_P2
2021/12/17 00:00:31;;;;;;;70.00;13.20;;;5.90;99.90;;;;;;5073754;28;20388;-68
2021/12/17 00:05:52;;;;;;;80.85;19.98;;;5.80;99.90;;;;;;5074001;28;20035;-68
2021/12/17 00:08:20;;;;;;;83.20;18.17;;;5.80;99.90;;;;;;5073665;28;20028;-68
2021/12/17 00:10:47;;;;;;;77.13;17.90;;;5.70;99.90;;;;;;5073937;28;20032;-68
2021/12/17 00:13:13;;;;;;;69.35;15.93;;;5.80;99.90;;;;;;5073893;28;20059;-68
2021/12/17 00:15:39;;;;;;;62.35;15.63;;;5.80;99.90;;;;;;5073768;28;20048;-68
2021/12/17 00:18:14;;;;;;;73.00;18.92;;;5.80;99.90;;;;;;5073472;28;20046;-68
2021/12/17 00:51:09;;;;;;;;;;;5.70;99.90;;;;;;5073743;28;20063;-68
2021/12/17 00:53:27;;;;;;;65.78;12.48;;;5.70;99.90;;;;;;5072933;28;20002;-68
2021/12/17 00:55:53;;;;;;;53.33;12.70;;;5.70;99.90;;;;;;5073082;28;20111;-68
2021/12/17 00:58:19;;;;;;;67.28;17.48;;;5.70;99.90;;;;;;5073280;28;20428;-68
2021/12/17 01:00:46;;;;;;;58.38;16.83;;;5.70;99.90;;;;;;5073017;28;20111;-68
2021/12/17 01:03:11;;;;;;;63.22;15.23;;;5.70;99.90;;;;;;5073200;28;20450;-68
2021/12/17 01:05:37;;;;;;;49.28;14.45;;;5.80;99.90;;;;;;5073263;28;20029;-68
2021/12/17 01:08:05;;;;;;;69.55;15.73;;;5.80;99.90;;;;;;5072898;28;20095;-68
2021/12/17 01:10:42;;;;;;;63.60;15.48;;;5.80;99.90;;;;;;5073161;28;20437;-68
2021/12/17 01:13:10;;;;;;;71.00;16.50;;;5.70;99.90;;;;;;5072928;28;20024;-68
2021/12/17 01:15:37;;;;;;;78.38;15.98;;;5.70;99.90;;;;;;5072869;28;20487;-68
2021/12/17 01:18:09;;;;;;;92.82;20.17;;;5.70;99.90;;;;;;5072741;28;20024;-68
2021/12/17 01:23:17;;;;;;;58.40;16.33;;;5.70;99.90;;;;;;5073002;28;20158;-68
2021/12/17 01:36:28;;;;;;;56.95;15.82;;;5.80;99.90;;;;;;5072729;28;20441;-68
2021/12/17 01:44:09;;;;;;;43.47;11.45;;;5.70;99.90;;;;;;5072296;28;20025;-68
2021/12/17 01:46:36;;;;;;;61.33;13.98;;;5.70;99.90;;;;;;5072794;28;20020;-68
2021/12/17 01:59:54;;;;;;;77.75;18.10;;;5.80;99.90;;;;;;5076480;28;20039;-68
2021/12/17 02:02:20;;;;;;;59.15;13.65;;;5.80;99.90;;;;;;5076627;28;20051;-68
2021/12/17 02:04:46;;;;;;;75.28;15.23;;;5.80;99.90;;;;;;5076312;28;20031;-68
2021/12/17 02:07:12;;;;;;;64.03;15.93;;;5.80;99.90;;;;;;5075765;28;20399;-68
2021/12/17 02:31:40;;;;;;;59.55;15.88;;;5.70;99.90;;;;;;5076095;28;20033;-68
2021/12/17 02:37:05;;;;;;;52.47;14.85;;;5.70;99.90;;;;;;5046739;28;20427;-68
2021/12/17 02:47:43;;;;;;;65.72;19.00;;;5.80;99.90;;;;;;5074607;28;20120;-68
2021/12/17 02:50:11;;;;;;;74.45;17.88;;;5.80;99.90;;;;;;5075269;28;20048;-68
2021/12/17 02:52:38;;;;;;;64.40;18.60;;;5.80;99.90;;;;;;5075142;28;20027;-68
2021/12/17 02:55:05;;;;;;;67.60;18.52;;;5.80;99.90;;;;;;5075328;28;20025;-68
2021/12/17 02:57:31;;;;;;;72.53;17.05;;;5.90;99.90;;;;;;5072241;28;20029;-68
2021/12/17 02:59:59;;;;;;;81.47;19.73;;;5.80;99.90;;;;;;5075018;28;20028;-68
2021/12/17 03:02:28;;;;;;;67.50;19.35;;;5.80;99.90;;;;;;5074886;28;20027;-68
2021/12/17 03:04:54;;;;;;;66.07;21.05;;;5.80;99.90;;;;;;5074929;28;20012;-68
2021/12/17 03:07:20;;;;;;;76.50;19.35;;;5.80;99.90;;;;;;5074835;28;20158;-68
2021/12/17 03:12:37;;;;;;;65.30;21.73;;;5.90;99.90;;;;;;5075132;28;20020;-68
2021/12/17 03:15:30;;;;;;;87.20;17.60;;;5.90;99.90;;;;;;5074958;28;20027;-68
2021/12/17 03:23:29;;;;;;;48.15;17.27;;;5.90;99.90;;;;;;5074536;28;20075;-68
2021/12/17 03:25:57;;;;;;;59.10;17.52;;;5.90;99.90;;;;;;5074583;28;20016;-68
2021/12/17 03:28:23;;;;;;;71.50;18.05;;;5.90;99.90;;;;;;5074490;28;20465;-68
2021/12/17 03:30:49;;;;;;;55.92;16.42;;;5.90;99.90;;;;;;5074364;28;20035;-68
2021/12/17 03:33:14;;;;;;;61.50;18.70;;;5.90;99.90;;;;;;5074360;28;20024;-68
2021/12/17 03:35:40;;;;;;;54.05;17.25;;;5.90;99.90;;;;;;5073777;28;20025;-68
2021/12/17 03:38:07;;;;;;;62.60;16.75;;;5.90;99.90;;;;;;5074193;28;20495;-68
2021/12/17 03:40:33;;;;;;;54.95;17.10;;;5.90;99.90;;;;;;5074185;28;20056;-68
2021/12/17 03:43:10;;;;;;;48.55;19.35;;;5.90;99.90;;;;;;5074027;28;20017;-68
2021/12/17 03:45:36;;;;;;;57.10;18.75;;;5.90;99.90;;;;;;5074705;28;20028;-68
2021/12/17 03:48:01;;;;;;;52.95;17.88;;;5.80;99.90;;;;;;5073853;28;20029;-68
2021/12/17 03:50:27;;;;;;;49.17;17.27;;;5.80;99.90;;;;;;5074606;28;20532;-68
2021/12/17 03:52:52;;;;;;;53.22;18.48;;;5.80;99.90;;;;;;5074001;28;20025;-68
2021/12/17 03:55:18;;;;;;;66.70;18.50;;;5.80;99.90;;;;;;5073957;28;20066;-68
2021/12/17 03:57:44;;;;;;;45.10;16.70;;;5.80;99.90;;;;;;5073807;28;20036;-68
2021/12/17 04:00:12;;;;;;;63.03;17.83;;;5.80;99.90;;;;;;5073823;28;20064;-68
2021/12/17 04:02:38;;;;;;;54.10;15.75;;;5.90;99.90;;;;;;5073720;28;20020;-68
2021/12/17 04:05:05;;;;;;;42.35;16.35;;;5.90;99.90;;;;;;5073722;28;20368;-68
2021/12/17 04:07:31;;;;;;;80.95;18.83;;;5.90;99.90;;;;;;5073635;28;20162;-68
2021/12/17 04:09:56;;;;;;;165.23;20.23;;;5.90;99.90;;;;;;5073655;28;20483;-68
2021/12/17 04:12:26;;;;;;;55.42;17.95;;;5.90;99.90;;;;;;5073856;28;20028;-68
2021/12/17 04:14:52;;;;;;;60.88;16.17;;;6.00;99.90;;;;;;5074108;28;20067;-68
2021/12/17 04:17:24;;;;;;;65.90;15.40;;;5.90;99.90;;;;;;5073486;28;20044;-68
2021/12/17 04:19:49;;;;;;;28.10;9.25;;;5.90;99.90;;;;;;5073380;28;20489;-68
2021/12/17 04:22:15;;;;;;;9.35;3.85;;;6.00;99.90;;;;;;5073748;28;20051;-68
2021/12/17 04:24:41;;;;;;;15.10;3.90;;;5.80;99.90;;;;;;5073523;28;20029;-68
2021/12/17 04:27:07;;;;;;;10.00;3.97;;;5.70;99.90;;;;;;5073654;28;20020;-68
2021/12/17 04:29:39;;;;;;;10.90;3.83;;;5.70;99.90;;;;;;5073339;28;20395;-68
2021/12/17 04:32:05;;;;;;;11.45;3.20;;;5.70;99.90;;;;;;5073416;28;20020;-68
2021/12/17 04:34:30;;;;;;;15.52;5.63;;;5.80;99.90;;;;;;5073326;28;20036;-68
2021/12/17 04:36:57;;;;;;;17.65;5.28;;;5.70;99.90;;;;;;5055321;28;20031;-68
2021/12/17 04:39:23;;;;;;;9.02;3.70;;;5.70;99.90;;;;;;5073165;28;20541;-68
2021/12/17 04:41:57;;;;;;;7.43;3.35;;;5.70;99.90;;;;;;5073283;28;20042;-68
2021/12/17 04:44:27;;;;;;;;;;;5.80;99.90;;;;;;5074110;28;20025;-69
2021/12/17 04:59:41;;;;;;;32.90;8.70;;;5.80;99.90;;;;;;5073345;28;19996;-69
2021/12/17 05:02:07;;;;;;;35.78;8.32;;;5.80;99.90;;;;;;5073292;28;20048;-68
2021/12/17 05:04:32;;;;;;;52.97;14.52;;;5.80;99.90;;;;;;5073183;28;20481;-68
2021/12/17 05:06:59;;;;;;;27.58;7.82;;;5.80;99.90;;;;;;5073281;28;20016;-68
2021/12/17 05:09:35;;;;;;;27.15;7.32;;;5.90;99.90;;;;;;5073133;28;20396;-68
2021/12/17 05:19:55;;;;;;;31.83;10.73;;;5.80;99.90;;;;;;5073118;28;20082;-68
2021/12/17 05:22:23;;;;;;;36.17;10.25;;;5.80;99.90;;;;;;5054796;28;20028;-68
2021/12/17 05:24:49;;;;;;;38.47;9.75;;;5.90;99.90;;;;;;5072839;28;20021;-68
2021/12/17 05:27:14;;;;;;;15.60;5.15;;;5.90;99.90;;;;;;5073001;28;20051;-68
2021/12/17 05:29:40;;;;;;;21.13;6.05;;;5.90;99.90;;;;;;5072715;28;20040;-68
2021/12/17 05:32:06;;;;;;;22.60;7.35;;;5.80;99.90;;;;;;5072810;28;20063;-69
2021/12/17 05:34:31;;;;;;;123.00;20.55;;;5.80;99.90;;;;;;5076535;28;20445;-68
2021/12/17 05:36:57;;;;;;;105.05;21.77;;;5.80;99.90;;;;;;5076645;28;20108;-69
2021/12/17 05:39:23;;;;;;;45.60;9.63;;;5.90;99.90;;;;;;5076423;28;20117;-68
2021/12/17 05:41:48;;;;;;;46.08;10.27;;;5.90;99.90;;;;;;5076790;28;20037;-68
2021/12/17 05:44:15;;;;;;;53.83;12.52;;;6.00;99.90;;;;;;5076479;28;20039;-69
2021/12/17 05:46:50;;;;;;;65.35;15.25;;;6.00;99.90;;;;;;5076629;28;20032;-68
2021/12/17 05:49:17;;;;;;;112.20;18.35;;;6.00;99.90;;;;;;5117205;22;20048;-72
2021/12/17 05:51:43;;;;;;;39.15;8.77;;;6.00;99.90;;;;;;5056600;28;20032;-72
2021/12/17 05:54:09;;;;;;;62.30;12.93;;;6.00;99.90;;;;;;5056259;28;20021;-72
2021/12/17 05:56:34;;;;;;;69.05;13.13;;;6.10;99.90;;;;;;5056507;28;20048;-72
2021/12/17 05:59:00;;;;;;;35.75;9.15;;;6.10;99.90;;;;;;5056084;28;20064;-72
2021/12/17 06:01:25;;;;;;;74.18;15.98;;;6.10;99.90;;;;;;5056116;28;20036;-72
2021/12/17 06:03:51;;;;;;;65.18;11.02;;;6.10;99.90;;;;;;5056051;28;20075;-72
2021/12/17 06:06:38;;;;;;;38.40;10.05;;;6.20;99.90;;;;;;5056022;28;20027;-72
2021/12/17 06:09:07;;;;;;;34.63;9.50;;;6.20;99.90;;;;;;5055923;28;20020;-72
2021/12/17 06:11:34;;;;;;;64.10;12.20;;;6.20;99.90;;;;;;5055975;28;20013;-72
2021/12/17 06:14:00;;;;;;;86.15;15.77;;;6.20;99.90;;;;;;5055887;28;20032;-72
2021/12/17 06:16:27;;;;;;;105.30;22.73;;;6.30;99.90;;;;;;5056085;28;20025;-73
2021/12/17 06:18:53;;;;;;;92.75;18.88;;;6.30;99.90;;;;;;5055713;28;20053;-72
2021/12/17 06:21:19;;;;;;;168.98;26.73;;;6.30;99.90;;;;;;5055787;28;20060;-72
2021/12/17 06:23:44;;;;;;;46.30;10.95;;;6.30;99.90;;;;;;5055599;28;20049;-72
2021/12/17 06:26:10;;;;;;;107.28;18.38;;;6.40;99.90;;;;;;5055946;28;20025;-72
2021/12/17 06:28:35;;;;;;;47.63;11.38;;;6.40;99.90;;;;;;5055850;28;20025;-72
2021/12/17 06:31:01;;;;;;;77.72;15.38;;;6.40;99.90;;;;;;5055535;28;20476;-72
2021/12/17 06:33:27;;;;;;;71.47;14.40;;;6.30;99.90;;;;;;5055552;28;20523;-72
2021/12/17 06:35:52;;;;;;;65.35;12.68;;;6.40;99.90;;;;;;5055764;28;20071;-72
2021/12/17 06:38:18;;;;;;;36.30;9.05;;;6.30;99.90;;;;;;5055518;28;20064;-72
2021/12/17 06:40:44;;;;;;;130.52;44.55;;;6.30;99.90;;;;;;5055391;28;20025;-72
2021/12/17 06:43:09;;;;;;;91.25;40.58;;;6.30;99.90;;;;;;5054866;28;20029;-72
2021/12/17 06:45:52;;;;;;;36.78;18.60;;;6.20;99.90;;;;;;5054399;28;20052;-72
2021/12/17 06:48:22;;;;;;;21.35;8.45;;;6.20;99.90;;;;;;5054937;28;20489;-72
2021/12/17 06:59:13;;;;;;;15.02;6.13;;;6.30;99.90;;;;;;5055108;28;20287;-72
2021/12/17 07:17:52;;;;;;;21.15;7.85;;;6.30;99.90;;;;;;5054722;28;20069;-72
2021/12/17 07:20:57;;;;;;;23.88;8.90;;;6.30;99.90;;;;;;5054693;28;20021;-72
2021/12/17 07:23:36;;;;;;;28.50;10.02;;;6.40;99.90;;;;;;5054261;28;20079;-72
2021/12/17 07:34:08;;;;;;;21.35;8.88;;;6.40;99.90;;;;;;5054679;28;20483;-72
2021/12/17 07:36:55;;;;;;;35.45;11.95;;;6.40;99.90;;;;;;5054646;28;20404;-72
2021/12/17 07:39:20;;;;;;;31.92;10.23;;;6.40;99.90;;;;;;5053967;28;20400;-72
2021/12/17 07:41:45;;;;;;;25.55;8.60;;;6.40;99.90;;;;;;5054252;28;20029;-72
2021/12/17 07:44:13;;;;;;;32.78;9.40;;;6.40;99.90;;;;;;5054088;28;20035;-72
2021/12/17 07:46:38;;;;;;;30.45;9.85;;;6.40;99.90;;;;;;5036285;28;20021;-72
2021/12/17 07:49:04;;;;;;;27.73;9.27;;;6.40;99.90;;;;;;5053841;28;20381;-72
2021/12/17 07:51:29;;;;;;;25.10;9.68;;;6.40;99.90;;;;;;5054306;28;20027;-72
2021/12/17 07:53:56;;;;;;;25.38;9.68;;;6.50;99.90;;;;;;5053964;28;20021;-71
2021/12/17 07:56:25;;;;;;;27.00;9.55;;;6.40;99.90;;;;;;5053539;28;20021;-71
2021/12/17 07:58:51;;;;;;;19.63;8.77;;;6.40;99.90;;;;;;5054114;28;20029;-72
2021/12/17 08:01:17;;;;;;;25.83;9.07;;;6.40;99.90;;;;;;5054174;28;20481;-72
2021/12/17 08:03:43;;;;;;;25.05;10.10;;;6.50;99.90;;;;;;5053837;28;20032;-71
2021/12/17 08:06:10;;;;;;;22.27;9.30;;;6.50;99.90;;;;;;5053710;28;20029;-71
2021/12/17 08:08:36;;;;;;;28.08;9.60;;;6.50;99.90;;;;;;5053647;28;20545;-72
2021/12/17 08:11:03;;;;;;;22.77;8.65;;;6.50;99.90;;;;;;5053665;28;20092;-71
2021/12/17 08:13:32;;;;;;;27.30;9.88;;;6.60;99.90;;;;;;5053641;28;20178;-71
2021/12/17 08:29:11;;;;;;;19.90;7.55;;;6.60;99.90;;;;;;5039804;28;20393;-72
2021/12/17 08:31:37;;;;;;;22.15;7.88;;;6.70;99.90;;;;;;5039823;28;20025;-72
2021/12/17 08:34:04;;;;;;;27.88;9.68;;;6.70;99.90;;;;;;5033139;28;20029;-72
2021/12/17 08:36:31;;;;;;;35.10;9.68;;;6.70;99.90;;;;;;5033503;28;20047;-71
2021/12/17 08:38:56;;;;;;;33.95;10.63;;;6.70;99.90;;;;;;5033190;28;20021;-71
2021/12/17 08:41:22;;;;;;;29.73;10.82;;;6.70;99.90;;;;;;5033266;28;20527;-71
2021/12/17 08:43:48;;;;;;;26.63;10.32;;;6.70;99.90;;;;;;5033201;28;20083;-71
2021/12/17 08:46:14;;;;;;;29.58;11.02;;;6.70;99.90;;;;;;5033165;28;20039;-71
2021/12/17 08:48:40;;;;;;;21.02;9.07;;;6.80;99.90;;;;;;5015190;28;20524;-71
2021/12/17 08:51:08;;;;;;;25.55;9.40;;;6.80;99.90;;;;;;5033136;28;20060;-71
2021/12/17 08:53:34;;;;;;;24.00;10.05;;;6.80;99.90;;;;;;5033135;28;20029;-71
2021/12/17 08:56:01;;;;;;;25.20;9.85;;;6.80;99.90;;;;;;5033141;28;20025;-71
2021/12/17 08:58:27;;;;;;;35.70;11.38;;;6.90;99.90;;;;;;5033003;28;20075;-71
2021/12/17 09:00:52;;;;;;;47.53;10.18;;;6.90;99.90;;;;;;5033017;28;20025;-71
2021/12/17 09:03:18;;;;;;;44.22;10.85;;;6.90;99.90;;;;;;5032930;28;20036;-71
2021/12/17 09:05:45;;;;;;;37.78;10.82;;;7.00;99.90;;;;;;5033001;28;20061;-72
2021/12/17 09:08:11;;;;;;;21.08;9.20;;;7.00;99.90;;;;;;5035233;28;20018;-72
2021/12/17 09:10:38;;;;;;;19.63;8.95;;;7.00;99.90;;;;;;5037507;28;20112;-71
2021/12/17 09:13:05;;;;;;;56.25;10.77;;;7.10;99.90;;;;;;5019377;28;20030;-71
2021/12/17 09:15:31;;;;;;;28.20;10.27;;;7.10;99.90;;;;;;5037069;28;20048;-71
2021/12/17 09:17:57;;;;;;;22.25;9.40;;;7.10;99.90;;;;;;5036991;28;20397;-74
2021/12/17 09:20:23;;;;;;;28.02;9.75;;;7.10;99.90;;;;;;5019151;28;20026;-72
2021/12/17 09:22:48;;;;;;;28.40;10.07;;;7.20;99.90;;;;;;5036872;28;20017;-71
2021/12/17 09:25:15;;;;;;;30.92;10.18;;;7.20;99.90;;;;;;5036922;28;20052;-71
2021/12/17 09:27:41;;;;;;;38.80;9.35;;;7.20;99.90;;;;;;5036962;28;20037;-72
2021/12/17 09:30:10;;;;;;;23.45;8.30;;;7.20;99.90;;;;;;5037012;28;20029;-72
2021/12/17 09:32:38;;;;;;;24.88;7.68;;;7.30;99.90;;;;;;5042648;28;20021;-71
2021/12/17 09:35:04;;;;;;;26.85;8.63;;;7.20;99.90;;;;;;5036716;28;20017;-72
2021/12/17 09:37:30;;;;;;;22.20;8.98;;;7.20;99.90;;;;;;5018868;28;20384;-72
2021/12/17 09:39:55;;;;;;;17.25;8.38;;;7.30;99.90;;;;;;5036914;28;20109;-72
2021/12/17 09:42:21;;;;;;;18.65;7.57;;;7.30;99.90;;;;;;5036567;28;20029;-72
2021/12/17 09:44:47;;;;;;;24.23;8.55;;;7.30;99.90;;;;;;5036896;28;20109;-71
2021/12/17 09:47:12;;;;;;;19.75;9.43;;;7.30;99.90;;;;;;5036509;28;20040;-72
2021/12/17 09:49:38;;;;;;;21.70;9.02;;;7.40;99.90;;;;;;5036340;28;20500;-72
2021/12/17 09:52:04;;;;;;;22.83;8.60;;;7.40;99.90;;;;;;5036399;28;20084;-72
2021/12/17 09:54:30;;;;;;;24.10;9.18;;;7.40;99.90;;;;;;5018536;28;20025;-72
2021/12/17 09:56:55;;;;;;;24.40;8.00;;;7.50;99.90;;;;;;5035961;28;20543;-71
2021/12/17 09:59:21;;;;;;;21.50;8.55;;;7.50;99.90;;;;;;5036711;28;20040;-72
2021/12/17 10:01:47;;;;;;;35.03;9.05;;;7.50;99.90;;;;;;5036772;28;20025;-72
2021/12/17 10:04:31;;;;;;;51.55;8.90;;;7.50;99.90;;;;;;5036076;28;20068;-72
2021/12/17 10:07:15;;;;;;;;;;;7.50;99.90;;;;;;5036861;28;20037;-72
2021/12/17 10:10:05;;;;;;;23.42;8.23;;;7.60;99.90;;;;;;5036172;28;19912;-71
2021/12/17 10:12:34;;;;;;;25.38;9.13;;;7.60;99.90;;;;;;5054226;28;20040;-72
2021/12/17 10:15:05;;;;;;;27.48;8.80;;;7.70;99.90;;;;;;5055873;28;20109;-72
2021/12/17 10:17:31;;;;;;;30.15;10.98;;;7.70;99.90;;;;;;5056057;28;20025;-71
2021/12/17 10:19:57;;;;;;;26.30;9.15;;;7.80;99.90;;;;;;5055501;28;20107;-71
2021/12/17 10:22:25;;;;;;;26.50;10.23;;;7.80;99.90;;;;;;5056093;28;20104;-71
2021/12/17 10:25:07;;;;;;;23.90;10.38;;;7.90;99.90;;;;;;5055664;28;20102;-72
2021/12/17 10:27:36;;;;;;;24.42;9.60;;;8.00;99.90;;;;;;5055536;28;20021;-72
2021/12/17 10:30:21;;;;;;;23.60;8.50;;;8.00;99.90;;;;;;5055960;28;20467;-70
2021/12/17 10:32:53;;;;;;;23.50;7.78;;;8.10;99.90;;;;;;5055618;28;20021;-72
2021/12/17 10:35:26;;;;;;;22.27;6.70;;;8.10;99.90;;;;;;5055745;28;20025;-72
2021/12/17 10:37:57;;;;;;;16.27;6.95;;;8.20;99.90;;;;;;5055749;28;20037;-72
2021/12/17 10:41:05;;;;;;;10.73;5.90;;;8.20;99.90;;;;;;5055516;28;20515;-73
2021/12/17 10:43:40;;;;;;;13.10;5.75;;;8.20;99.90;;;;;;4955517;29;20369;-72
2021/12/17 10:46:32;;;;;;;12.75;5.85;;;8.30;99.90;;;;;;5045755;28;20098;-73
2021/12/17 10:54:14;;;;;;;9.57;4.22;;;8.30;99.90;;;;;;5055656;28;20028;-71
2021/12/17 10:56:47;;;;;;;5.88;3.47;;;8.40;99.90;;;;;;5055121;28;20044;-71
2021/12/17 10:59:20;;;;;;;12.17;3.97;;;8.30;99.90;;;;;;5055162;28;20048;-71
2021/12/17 11:01:47;;;;;;;7.00;3.45;;;8.40;99.90;;;;;;5055441;28;20329;-71
2021/12/17 11:04:19;;;;;;;4.35;3.05;;;8.30;99.90;;;;;;5055175;28;20055;-72
2021/12/17 11:06:55;;;;;;;7.95;3.70;;;8.30;99.90;;;;;;5054924;28;20025;-72
2021/12/17 11:09:34;;;;;;;5.28;2.97;;;8.30;99.90;;;;;;5054880;28;20028;-72
2021/12/17 11:12:06;;;;;;;8.00;3.65;;;8.40;99.90;;;;;;5055067;28;20025;-71
2021/12/17 11:14:32;;;;;;;7.47;3.33;;;8.30;99.90;;;;;;5054957;28;20025;-72
2021/12/17 11:16:58;;;;;;;6.07;3.35;;;8.30;99.90;;;;;;5054734;28;20032;-72
2021/12/17 11:19:24;;;;;;;5.03;3.30;;;8.30;99.90;;;;;;5054661;28;20029;-71
2021/12/17 11:21:50;;;;;;;4.05;2.72;;;8.30;99.90;;;;;;5054808;28;20022;-71
2021/12/17 11:24:16;;;;;;;6.43;3.53;;;8.30;99.90;;;;;;5054806;28;20437;-71
2021/12/17 11:26:43;;;;;;;8.63;3.55;;;8.30;99.90;;;;;;5054614;28;20045;-71
2021/12/17 11:29:09;;;;;;;6.93;3.53;;;8.30;99.90;;;;;;5054473;28;20021;-71
2021/12/17 11:31:35;;;;;;;6.97;3.13;;;8.20;99.90;;;;;;5049005;28;20032;-78
2021/12/17 11:34:01;;;;;;;4.07;2.72;;;8.20;99.90;;;;;;5044864;28;20032;-78
2021/12/17 11:36:28;;;;;;;6.00;3.58;;;8.20;99.90;;;;;;5048184;28;20021;-78
2021/12/17 11:39:08;;;;;;;6.25;2.38;;;8.20;99.90;;;;;;5026643;28;20083;-78
2021/12/17 11:41:48;;;;;;;5.95;2.97;;;8.20;99.90;;;;;;5044011;28;20488;-78
2021/12/17 11:44:15;;;;;;;4.18;2.38;;;8.20;99.90;;;;;;5037083;28;20036;-78
2021/12/17 11:46:40;;;;;;;3.97;2.15;;;8.10;99.90;;;;;;5034276;28;20512;-78
2021/12/17 11:49:15;;;;;;;3.55;2.50;;;8.00;99.90;;;;;;5136562;22;20041;-71
2021/12/17 11:51:51;;;;;;;3.00;1.80;;;8.00;99.90;;;;;;5032765;28;20562;-71
2021/12/17 11:54:25;;;;;;;7.95;2.05;;;8.10;99.90;;;;;;5045051;28;20144;-71
2021/12/17 11:56:54;;;;;;;3.42;1.85;;;8.00;99.90;;;;;;5044227;28;20075;-72
2021/12/17 11:59:28;;;;;;;2.97;1.83;;;7.90;99.90;;;;;;5040015;28;20112;-71
2021/12/17 12:02:01;;;;;;;2.03;1.40;;;7.80;99.90;;;;;;5039618;28;20018;-71
2021/12/17 12:04:33;;;;;;;4.63;2.13;;;7.70;99.90;;;;;;5043656;28;20032;-71
2021/12/17 12:07:24;;;;;;;8.30;3.38;;;7.60;99.90;;;;;;5042624;28;20022;-72
2021/12/17 12:10:02;;;;;;;6.72;3.28;;;7.60;99.90;;;;;;5042056;28;20040;-72
2021/12/17 12:12:42;;;;;;;7.05;4.30;;;7.60;99.90;;;;;;5044577;28;20028;-72
2021/12/17 12:15:20;;;;;;;9.23;4.35;;;7.70;99.90;;;;;;5044567;28;20025;-72
2021/12/17 12:17:58;;;;;;;7.32;4.45;;;7.70;99.90;;;;;;5042519;28;20020;-72
2021/12/17 12:20:51;;;;;;;14.95;6.30;;;7.70;99.90;;;;;;5034943;28;20431;-72
2021/12/17 12:23:23;;;;;;;12.50;5.03;;;7.70;99.90;;;;;;5034032;28;20079;-73
2021/12/17 12:26:11;;;;;;;14.00;5.10;;;7.80;99.90;;;;;;5040682;28;20014;-70
2021/12/17 12:28:46;;;;;;;12.90;5.05;;;7.80;99.90;;;;;;5042874;28;20447;-71
2021/12/17 12:31:27;;;;;;;9.90;4.45;;;7.70;99.90;;;;;;5042842;28;20026;-71
2021/12/17 12:34:08;;;;;;;13.00;4.53;;;7.70;99.90;;;;;;5041892;28;20028;-70
2021/12/17 12:36:52;;;;;;;10.93;4.25;;;7.70;99.90;;;;;;5041957;28;20111;-70
2021/12/17 12:39:38;;;;;;;6.50;3.25;;;7.70;99.90;;;;;;5042801;28;20040;-70
2021/12/17 12:42:17;;;;;;;6.30;2.88;;;7.60;99.90;;;;;;5044612;28;20021;-70
2021/12/17 12:45:08;;;;;;;10.15;2.30;;;7.60;99.90;;;;;;5041736;28;20032;-71
2021/12/17 12:47:50;;;;;;;3.00;1.88;;;7.60;99.90;;;;;;5020033;28;20431;-71
2021/12/17 12:50:23;;;;;;;2.85;1.70;;;7.60;99.90;;;;;;5038627;28;20025;-69
2021/12/17 12:52:53;;;;;;;;;;;7.60;99.90;;;;;;5040983;28;20092;-68
2021/12/17 12:55:33;;;;;;;2.28;1.40;;;7.60;99.90;;;;;;5042919;28;20022;-68
2021/12/17 12:57:59;;;;;;;1.83;1.25;;;7.50;99.90;;;;;;5041548;28;20530;-67
2021/12/17 13:00:29;;;;;;;2.20;1.27;;;7.50;99.90;;;;;;5044120;28;20034;-67
2021/12/17 13:03:07;;;;;;;1.83;1.20;;;7.50;99.90;;;;;;5042620;28;20036;-68
2021/12/17 13:05:33;;;;;;;0.93;0.82;;;7.60;99.90;;;;;;5040019;28;20029;-68
2021/12/17 13:08:01;;;;;;;1.83;1.48;;;7.50;99.90;;;;;;5039096;28;20105;-67
2021/12/17 13:10:36;;;;;;;2.17;1.40;;;7.50;99.90;;;;;;5043200;28;20026;-68
2021/12/17 13:13:04;;;;;;;2.25;1.58;;;7.50;99.90;;;;;;5041689;28;20071;-67
2021/12/17 13:15:44;;;;;;;1.35;1.08;;;7.40;99.90;;;;;;5043788;28;20033;-67
2021/12/17 13:23:21;;;;;;;2.30;1.33;;;7.50;99.90;;;;;;5038918;28;20030;-67
2021/12/17 13:26:07;;;;;;;0.82;0.75;;;7.50;99.90;;;;;;5041117;28;20025;-68
2021/12/17 13:29:13;;;;;;;1.38;0.90;;;7.40;99.90;;;;;;5042186;28;20499;-67
2021/12/17 13:31:44;;;;;;;1.30;1.10;;;7.40;99.90;;;;;;5041787;28;20395;-68
2021/12/17 13:34:14;;;;;;;1.40;0.90;;;7.50;99.90;;;;;;5041828;28;20029;-68
2021/12/17 13:37:03;;;;;;;1.33;0.90;;;7.40;99.90;;;;;;5041958;28;20627;-67
2021/12/17 13:39:42;;;;;;;0.80;0.80;;;7.40;99.90;;;;;;5036705;28;20049;-68
2021/12/17 13:42:12;;;;;;;1.65;1.23;;;7.50;99.90;;;;;;5045421;28;20119;-68
2021/12/17 13:44:44;;;;;;;6.35;1.35;;;7.50;99.90;;;;;;5039781;28;20033;-67
2021/12/17 13:47:20;;;;;;;3.80;2.20;;;7.40;99.90;;;;;;5038474;28;20045;-67
2021/12/17 13:50:12;;;;;;;1.70;0.93;;;7.40;99.90;;;;;;5040810;28;20029;-67
2021/12/17 13:52:46;;;;;;;2.03;1.33;;;7.40;99.90;;;;;;5042078;28;20017;-68
2021/12/17 13:55:14;;;;;;;1.33;0.98;;;7.40;99.90;;;;;;5048346;28;20108;-68
2021/12/17 13:57:41;;;;;;;1.10;0.90;;;7.40;99.90;;;;;;5056150;28;20029;-67
2021/12/17 14:00:14;;;;;;;3.03;1.02;;;7.40;99.90;;;;;;5056057;28;20072;-67
2021/12/17 14:02:42;;;;;;;1.58;1.35;;;7.40;99.90;;;;;;5056299;28;20049;-67
2021/12/17 14:05:09;;;;;;;1.48;1.13;;;7.40;99.90;;;;;;5056055;28;20028;-68
2021/12/17 14:07:36;;;;;;;1.88;1.20;;;7.50;99.90;;;;;;5055812;28;20025;-68
2021/12/17 14:10:11;;;;;;;2.63;1.60;;;7.50;99.90;;;;;;5056131;28;20431;-67
2021/12/17 14:12:39;;;;;;;4.70;3.38;;;7.40;99.90;;;;;;5056157;28;20045;-67
2021/12/17 14:15:09;;;;;;;7.60;2.88;;;7.40;99.90;;;;;;5056104;28;20025;-67
2021/12/17 14:17:37;;;;;;;3.55;1.30;;;7.40;99.90;;;;;;5055852;28;20079;-68
2021/12/17 14:20:07;;;;;;;2.92;1.55;;;7.40;99.90;;;;;;5055918;28;20021;-68
2021/12/17 14:22:35;;;;;;;2.83;1.60;;;7.40;99.90;;;;;;5037856;28;20399;-67
2021/12/17 14:25:33;;;;;;;2.33;1.63;;;7.40;99.90;;;;;;5055591;28;20365;-67
2021/12/17 14:28:21;;;;;;;3.10;1.83;;;7.40;99.90;;;;;;5055673;28;20092;-68
2021/12/17 14:31:13;;;;;;;4.60;1.90;;;7.30;99.90;;;;;;5055899;28;20017;-67
2021/12/17 14:33:48;;;;;;;2.97;2.45;;;7.30;99.90;;;;;;5055910;28;20051;-67
2021/12/17 14:36:18;;;;;;;4.68;3.00;;;7.40;99.90;;;;;;5055576;28;20386;-67
2021/12/17 14:38:59;;;;;;;9.20;6.30;;;7.40;99.90;;;;;;5055473;28;20064;-67
2021/12/17 14:41:44;;;;;;;22.52;12.63;;;7.40;99.90;;;;;;5056007;28;20021;-67
2021/12/17 14:44:58;;;;;;;11.38;8.00;;;7.40;99.90;;;;;;5055624;28;20021;-67
2021/12/17 14:47:24;;;;;;;51.70;29.05;;;7.40;99.90;;;;;;5047024;28;20036;-67
2021/12/17 14:59:35;;;;;;;37.60;19.20;;;7.40;99.90;;;;;;5055279;28;20415;-67
2021/12/17 15:03:41;;;;;;;20.27;11.30;;;7.30;99.90;;;;;;5055578;28;20032;-67
2021/12/17 15:06:09;;;;;;;15.02;7.20;;;7.40;99.90;;;;;;5054212;28;20526;-67
2021/12/17 15:08:35;;;;;;;37.72;15.15;;;7.40;99.90;;;;;;5054985;28;20432;-67
2021/12/17 15:11:04;;;;;;;10.77;5.03;;;7.40;99.90;;;;;;5054926;28;20064;-67
2021/12/17 15:13:30;;;;;;;18.90;10.88;;;7.30;99.90;;;;;;5054889;28;20028;-67
2021/12/17 15:15:57;;;;;;;8.50;5.22;;;7.40;99.90;;;;;;5055003;28;20053;-67
2021/12/17 15:18:23;;;;;;;23.58;8.57;;;7.40;99.90;;;;;;5054990;28;20021;-67
2021/12/17 15:20:53;;;;;;;4.32;2.15;;;7.40;99.90;;;;;;5054979;28;20025;-67
2021/12/17 15:23:20;;;;;;;5.43;1.98;;;7.40;99.90;;;;;;5054574;28;20033;-67
2021/12/17 15:25:47;;;;;;;13.30;6.95;;;7.30;99.90;;;;;;5036631;28;20028;-67
2021/12/17 15:28:16;;;;;;;10.55;5.72;;;7.30;99.90;;;;;;5055008;28;20116;-67
2021/12/17 15:30:46;;;;;;;7.80;3.83;;;7.20;99.90;;;;;;5054332;28;20060;-67
2021/12/17 15:33:13;;;;;;;6.95;3.88;;;7.20;99.90;;;;;;5054473;28;20025;-67
2021/12/17 15:35:39;;;;;;;9.73;6.43;;;7.20;99.90;;;;;;5054500;28;20025;-67
2021/12/17 15:38:07;;;;;;;5.70;3.40;;;7.20;99.90;;;;;;5054292;28;20021;-67
2021/12/17 15:40:35;;;;;;;14.70;3.45;;;7.20;99.90;;;;;;5054589;28;20100;-70
2021/12/17 15:43:03;;;;;;;38.25;18.73;;;7.20;99.90;;;;;;5054181;28;20029;-70
2021/12/17 15:45:37;;;;;;;4.78;2.88;;;7.20;99.90;;;;;;5054247;28;20020;-70
2021/12/17 15:48:04;;;;;;;7.68;4.30;;;7.20;99.90;;;;;;5054082;28;20028;-71
2021/12/17 15:50:29;;;;;;;9.45;3.40;;;7.10;99.90;;;;;;5054051;28;20033;-70
2021/12/17 15:52:55;;;;;;;11.15;3.72;;;7.10;99.90;;;;;;5054062;28;20033;-71
2021/12/17 15:55:24;;;;;;;5.78;3.67;;;7.10;99.90;;;;;;5054448;28;20021;-71
2021/12/17 15:57:53;;;;;;;11.82;6.40;;;7.10;99.90;;;;;;5035983;28;20499;-71
2021/12/17 16:00:21;;;;;;;19.75;11.60;;;7.10;99.90;;;;;;5053838;28;20139;-70
2021/12/17 16:02:47;;;;;;;12.90;6.03;;;7.10;99.90;;;;;;5054173;28;20052;-70
2021/12/17 16:05:15;;;;;;;7.20;3.47;;;7.00;99.90;;;;;;5053825;28;20049;-71
2021/12/17 16:07:43;;;;;;;10.60;3.45;;;7.10;99.90;;;;;;5053819;28;20044;-71
2021/12/17 16:23:17;;;;;;;9.07;4.57;;;7.10;99.90;;;;;;5053552;28;20051;-70
2021/12/17 16:25:43;;;;;;;8.00;4.30;;;7.10;99.90;;;;;;5053516;28;20508;-70
2021/12/17 16:28:08;;;;;;;10.02;4.47;;;7.10;99.90;;;;;;5053364;28;20048;-67